sensor_id;sensor_type;location;lat;lon;timestamp;P1;durP1;ratioP1;P2;durP2;ratioP2
12591;SDS011;6361;52.120;5.108;2022-12-16T00:00:44;52.92;;;31.35;;
12591;SDS011;6361;52.120;5.108;2022-12-16T00:03:10;48.65;;;30.60;;
12591;SDS011;6361;52.120;5.108;2022-12-16T00:05:35;47.83;;;30.13;;
12591;SDS011;6361;52.120;5.108;2022-12-16T00:08:01;51.17;;;30.55;;
12591;SDS011;6361;52.120;5.108;2022-12-16T00:10:27;41.13;;;26.65;;
12591;SDS011;6361;52.120;5.108;2022-12-16T00:15:38;41.58;;;24.88;;
12591;SDS011;6361;52.120;5.108;2022-12-16T00:18:03;40.90;;;24.50;;
12591;SDS011;6361;52.120;5.108;2022-12-16T00:20:29;40.78;;;23.52;;
12591;SDS011;6361;52.120;5.108;2022-12-16T00:22:54;34.15;;;20.20;;
12591;SDS011;6361;52.120;5.108;2022-12-16T00:25:19;32.83;;;20.85;;
12591;SDS011;6361;52.120;5.108;2022-12-16T00:27:45;35.17;;;21.13;;
12591;SDS011;6361;52.120;5.108;2022-12-16T00:30:10;30.88;;;17.95;;
12591;SDS011;6361;52.120;5.108;2022-12-16T00:32:36;32.65;;;19.77;;
12591;SDS011;6361;52.120;5.108;2022-12-16T00:35:01;28.45;;;18.02;;
12591;SDS011;6361;52.120;5.108;2022-12-16T00:37:27;33.50;;;18.63;;
12591;SDS011;6361;52.120;5.108;2022-12-16T00:39:52;30.58;;;17.17;;
12591;SDS011;6361;52.120;5.108;2022-12-16T00:42:18;22.48;;;14.13;;
12591;SDS011;6361;52.120;5.108;2022-12-16T00:44:43;22.70;;;13.27;;
12591;SDS011;6361;52.120;5.108;2022-12-16T00:49:37;21.92;;;12.23;;
12591;SDS011;6361;52.120;5.108;2022-12-16T00:52:03;20.13;;;12.32;;
12591;SDS011;6361;52.120;5.108;2022-12-16T00:54:28;17.67;;;10.88;;
12591;SDS011;6361;52.120;5.108;2022-12-16T00:56:53;16.17;;;10.80;;
12591;SDS011;6361;52.120;5.108;2022-12-16T00:59:20;17.48;;;10.95;;
12591;SDS011;6361;52.120;5.108;2022-12-16T01:01:45;15.32;;;9.90;;
12591;SDS011;6361;52.120;5.108;2022-12-16T01:04:11;15.98;;;9.73;;
12591;SDS011;6361;52.120;5.108;2022-12-16T01:06:36;16.20;;;9.60;;
12591;SDS011;6361;52.120;5.108;2022-12-16T01:09:01;18.30;;;8.98;;
12591;SDS011;6361;52.120;5.108;2022-12-16T01:11:27;14.57;;;8.65;;
12591;SDS011;6361;52.120;5.108;2022-12-16T01:13:52;16.55;;;8.55;;
12591;SDS011;6361;52.120;5.108;2022-12-16T01:16:18;14.98;;;8.38;;
12591;SDS011;6361;52.120;5.108;2022-12-16T01:18:43;14.60;;;8.32;;
12591;SDS011;6361;52.120;5.108;2022-12-16T01:21:09;12.77;;;7.68;;
12591;SDS011;6361;52.120;5.108;2022-12-16T01:23:36;14.13;;;8.85;;
12591;SDS011;6361;52.120;5.108;2022-12-16T01:26:01;13.63;;;7.57;;
12591;SDS011;6361;52.120;5.108;2022-12-16T01:28:27;11.45;;;7.00;;
12591;SDS011;6361;52.120;5.108;2022-12-16T01:30:54;13.02;;;7.13;;
12591;SDS011;6361;52.120;5.108;2022-12-16T01:33:21;10.98;;;6.70;;
12591;SDS011;6361;52.120;5.108;2022-12-16T01:35:47;12.15;;;6.20;;
12591;SDS011;6361;52.120;5.108;2022-12-16T01:38:12;12.18;;;5.95;;
12591;SDS011;6361;52.120;5.108;2022-12-16T01:40:37;10.07;;;6.03;;
12591;SDS011;6361;52.120;5.108;2022-12-16T01:43:07;12.27;;;5.32;;
12591;SDS011;6361;52.120;5.108;2022-12-16T01:45:35;10.48;;;5.50;;
12591;SDS011;6361;52.120;5.108;2022-12-16T01:48:43;10.23;;;5.45;;
12591;SDS011;6361;52.120;5.108;2022-12-16T01:51:15;11.25;;;4.88;;
12591;SDS011;6361;52.120;5.108;2022-12-16T01:53:46;8.32;;;5.10;;
12591;SDS011;6361;52.120;5.108;2022-12-16T01:56:14;13.95;;;5.28;;
12591;SDS011;6361;52.120;5.108;2022-12-16T01:58:41;9.57;;;5.10;;
12591;SDS011;6361;52.120;5.108;2022-12-16T02:01:07;10.73;;;4.78;;
12591;SDS011;6361;52.120;5.108;2022-12-16T02:03:33;8.35;;;4.10;;
12591;SDS011;6361;52.120;5.108;2022-12-16T02:06:00;8.13;;;4.25;;
12591;SDS011;6361;52.120;5.108;2022-12-16T02:08:27;8.90;;;4.28;;
12591;SDS011;6361;52.120;5.108;2022-12-16T02:27:52;9.02;;;4.10;;
12591;SDS011;6361;52.120;5.108;2022-12-16T02:33:17;7.97;;;4.28;;
12591;SDS011;6361;52.120;5.108;2022-12-16T02:36:10;9.45;;;4.38;;
12591;SDS011;6361;52.120;5.108;2022-12-16T02:38:40;8.10;;;4.05;;
12591;SDS011;6361;52.120;5.108;2022-12-16T02:41:43;11.63;;;4.60;;
12591;SDS011;6361;52.120;5.108;2022-12-16T02:44:13;12.75;;;4.43;;
12591;SDS011;6361;52.120;5.108;2022-12-16T02:46:42;8.75;;;4.35;;
12591;SDS011;6361;52.120;5.108;2022-12-16T02:51:37;9.98;;;4.60;;
12591;SDS011;6361;52.120;5.108;2022-12-16T02:54:02;11.07;;;4.43;;
12591;SDS011;6361;52.120;5.108;2022-12-16T03:04:39;9.90;;;4.53;;
12591;SDS011;6361;52.120;5.108;2022-12-16T03:07:09;12.55;;;4.57;;
12591;SDS011;6361;52.120;5.108;2022-12-16T03:09:38;10.27;;;4.50;;
12591;SDS011;6361;52.120;5.108;2022-12-16T03:12:05;10.23;;;4.93;;
12591;SDS011;6361;52.120;5.108;2022-12-16T03:14:33;11.45;;;5.70;;
12591;SDS011;6361;52.120;5.108;2022-12-16T03:16:59;9.55;;;4.97;;
12591;SDS011;6361;52.120;5.108;2022-12-16T03:19:26;10.10;;;4.82;;
12591;SDS011;6361;52.120;5.108;2022-12-16T03:24:25;10.00;;;4.43;;
12591;SDS011;6361;52.120;5.108;2022-12-16T03:32:14;13.00;;;5.22;;
12591;SDS011;6361;52.120;5.108;2022-12-16T03:34:52;7.40;;;4.60;;
12591;SDS011;6361;52.120;5.108;2022-12-16T03:37:21;9.73;;;4.85;;
12591;SDS011;6361;52.120;5.108;2022-12-16T03:39:50;11.10;;;5.07;;
12591;SDS011;6361;52.120;5.108;2022-12-16T03:42:17;8.55;;;4.60;;
12591;SDS011;6361;52.120;5.108;2022-12-16T03:44:44;10.20;;;4.80;;
12591;SDS011;6361;52.120;5.108;2022-12-16T03:47:10;12.02;;;5.18;;
12591;SDS011;6361;52.120;5.108;2022-12-16T03:49:36;7.75;;;4.72;;
12591;SDS011;6361;52.120;5.108;2022-12-16T03:52:02;10.80;;;4.90;;
12591;SDS011;6361;52.120;5.108;2022-12-16T03:54:27;10.25;;;4.97;;
12591;SDS011;6361;52.120;5.108;2022-12-16T03:56:53;10.88;;;5.32;;
12591;SDS011;6361;52.120;5.108;2022-12-16T03:59:18;10.02;;;5.50;;
12591;SDS011;6361;52.120;5.108;2022-12-16T04:01:43;7.75;;;4.50;;
12591;SDS011;6361;52.120;5.108;2022-12-16T04:04:09;9.15;;;5.03;;
12591;SDS011;6361;52.120;5.108;2022-12-16T04:06:34;9.10;;;5.13;;
12591;SDS011;6361;52.120;5.108;2022-12-16T04:09:00;10.15;;;5.20;;
12591;SDS011;6361;52.120;5.108;2022-12-16T04:11:25;13.73;;;5.90;;
12591;SDS011;6361;52.120;5.108;2022-12-16T04:14:09;6.72;;;3.88;;
12591;SDS011;6361;52.120;5.108;2022-12-16T04:16:53;10.63;;;5.60;;
12591;SDS011;6361;52.120;5.108;2022-12-16T04:19:37;10.15;;;4.80;;
12591;SDS011;6361;52.120;5.108;2022-12-16T04:22:28;8.30;;;4.50;;
12591;SDS011;6361;52.120;5.108;2022-12-16T04:25:19;8.93;;;4.22;;
12591;SDS011;6361;52.120;5.108;2022-12-16T04:27:47;7.75;;;3.85;;
12591;SDS011;6361;52.120;5.108;2022-12-16T04:30:14;9.45;;;4.68;;
12591;SDS011;6361;52.120;5.108;2022-12-16T04:32:43;8.70;;;4.50;;
12591;SDS011;6361;52.120;5.108;2022-12-16T04:35:27;8.38;;;4.63;;
12591;SDS011;6361;52.120;5.108;2022-12-16T04:38:10;8.82;;;4.13;;
12591;SDS011;6361;52.120;5.108;2022-12-16T04:40:54;8.68;;;4.80;;
12591;SDS011;6361;52.120;5.108;2022-12-16T04:43:38;8.38;;;4.45;;
12591;SDS011;6361;52.120;5.108;2022-12-16T04:46:22;10.63;;;4.82;;
12591;SDS011;6361;52.120;5.108;2022-12-16T04:49:06;14.20;;;4.68;;
12591;SDS011;6361;52.120;5.108;2022-12-16T04:51:50;12.32;;;4.90;;
12591;SDS011;6361;52.120;5.108;2022-12-16T04:54:34;9.43;;;4.65;;
12591;SDS011;6361;52.120;5.108;2022-12-16T04:57:18;9.18;;;4.75;;
12591;SDS011;6361;52.120;5.108;2022-12-16T05:00:02;12.20;;;4.90;;
12591;SDS011;6361;52.120;5.108;2022-12-16T05:02:47;9.60;;;4.87;;
12591;SDS011;6361;52.120;5.108;2022-12-16T05:05:32;9.80;;;4.70;;
12591;SDS011;6361;52.120;5.108;2022-12-16T05:08:16;9.60;;;4.40;;
12591;SDS011;6361;52.120;5.108;2022-12-16T05:11:00;10.45;;;4.15;;
12591;SDS011;6361;52.120;5.108;2022-12-16T05:13:44;11.50;;;4.40;;
12591;SDS011;6361;52.120;5.108;2022-12-16T05:16:28;8.75;;;4.43;;
12591;SDS011;6361;52.120;5.108;2022-12-16T05:19:11;9.73;;;5.00;;
12591;SDS011;6361;52.120;5.108;2022-12-16T05:22:12;13.13;;;5.15;;
12591;SDS011;6361;52.120;5.108;2022-12-16T05:24:56;9.60;;;4.45;;
12591;SDS011;6361;52.120;5.108;2022-12-16T05:27:40;6.45;;;3.30;;
12591;SDS011;6361;52.120;5.108;2022-12-16T05:30:24;7.43;;;3.92;;
12591;SDS011;6361;52.120;5.108;2022-12-16T05:33:08;7.63;;;4.47;;
12591;SDS011;6361;52.120;5.108;2022-12-16T05:35:52;8.27;;;4.80;;
12591;SDS011;6361;52.120;5.108;2022-12-16T05:38:37;9.68;;;4.80;;
12591;SDS011;6361;52.120;5.108;2022-12-16T05:41:21;11.60;;;4.63;;
12591;SDS011;6361;52.120;5.108;2022-12-16T05:44:04;11.05;;;4.40;;
12591;SDS011;6361;52.120;5.108;2022-12-16T05:46:48;9.48;;;4.70;;
12591;SDS011;6361;52.120;5.108;2022-12-16T05:49:32;10.55;;;4.25;;
12591;SDS011;6361;52.120;5.108;2022-12-16T05:52:16;12.35;;;5.40;;
12591;SDS011;6361;52.120;5.108;2022-12-16T05:55:00;9.32;;;4.90;;
12591;SDS011;6361;52.120;5.108;2022-12-16T05:57:47;8.48;;;4.70;;
12591;SDS011;6361;52.120;5.108;2022-12-16T06:00:32;9.98;;;4.18;;
12591;SDS011;6361;52.120;5.108;2022-12-16T06:03:16;9.40;;;5.28;;
12591;SDS011;6361;52.120;5.108;2022-12-16T06:06:00;11.15;;;5.13;;
12591;SDS011;6361;52.120;5.108;2022-12-16T06:08:44;9.90;;;5.53;;
12591;SDS011;6361;52.120;5.108;2022-12-16T06:11:28;9.55;;;3.72;;
12591;SDS011;6361;52.120;5.108;2022-12-16T06:14:12;11.90;;;5.38;;
12591;SDS011;6361;52.120;5.108;2022-12-16T06:16:56;8.98;;;4.10;;
12591;SDS011;6361;52.120;5.108;2022-12-16T06:19:40;8.77;;;3.90;;
12591;SDS011;6361;52.120;5.108;2022-12-16T06:22:24;11.18;;;4.00;;
12591;SDS011;6361;52.120;5.108;2022-12-16T06:25:08;10.18;;;4.05;;
12591;SDS011;6361;52.120;5.108;2022-12-16T06:27:52;11.25;;;3.70;;
12591;SDS011;6361;52.120;5.108;2022-12-16T06:30:37;10.40;;;3.95;;
12591;SDS011;6361;52.120;5.108;2022-12-16T06:33:22;8.15;;;3.58;;
12591;SDS011;6361;52.120;5.108;2022-12-16T06:36:06;6.28;;;3.47;;
12591;SDS011;6361;52.120;5.108;2022-12-16T06:38:50;7.18;;;2.80;;
12591;SDS011;6361;52.120;5.108;2022-12-16T06:41:34;9.30;;;4.07;;
12591;SDS011;6361;52.120;5.108;2022-12-16T06:44:18;5.22;;;2.55;;
12591;SDS011;6361;52.120;5.108;2022-12-16T06:47:02;6.90;;;2.90;;
12591;SDS011;6361;52.120;5.108;2022-12-16T06:49:46;8.90;;;3.65;;
12591;SDS011;6361;52.120;5.108;2022-12-16T06:52:30;8.68;;;3.53;;
12591;SDS011;6361;52.120;5.108;2022-12-16T06:55:14;7.10;;;2.58;;
12591;SDS011;6361;52.120;5.108;2022-12-16T06:57:58;5.90;;;2.95;;
12591;SDS011;6361;52.120;5.108;2022-12-16T07:00:42;7.13;;;3.53;;
12591;SDS011;6361;52.120;5.108;2022-12-16T07:03:27;10.85;;;4.03;;
12591;SDS011;6361;52.120;5.108;2022-12-16T07:06:11;11.05;;;3.63;;
12591;SDS011;6361;52.120;5.108;2022-12-16T07:08:55;9.95;;;3.60;;
12591;SDS011;6361;52.120;5.108;2022-12-16T07:11:39;8.02;;;3.38;;
12591;SDS011;6361;52.120;5.108;2022-12-16T07:14:23;7.28;;;3.33;;
12591;SDS011;6361;52.120;5.108;2022-12-16T07:17:07;7.53;;;3.00;;
12591;SDS011;6361;52.120;5.108;2022-12-16T07:19:51;6.18;;;2.72;;
12591;SDS011;6361;52.120;5.108;2022-12-16T07:22:35;11.65;;;3.47;;
12591;SDS011;6361;52.120;5.108;2022-12-16T07:25:19;8.43;;;3.22;;
12591;SDS011;6361;52.120;5.108;2022-12-16T07:28:03;10.07;;;3.75;;
12591;SDS011;6361;52.120;5.108;2022-12-16T07:30:47;8.02;;;3.28;;
12591;SDS011;6361;52.120;5.108;2022-12-16T07:33:31;5.60;;;2.80;;
12591;SDS011;6361;52.120;5.108;2022-12-16T07:36:15;8.75;;;3.33;;
12591;SDS011;6361;52.120;5.108;2022-12-16T07:38:59;8.30;;;3.25;;
12591;SDS011;6361;52.120;5.108;2022-12-16T07:41:43;5.97;;;3.42;;
12591;SDS011;6361;52.120;5.108;2022-12-16T07:44:27;9.93;;;2.90;;
12591;SDS011;6361;52.120;5.108;2022-12-16T07:47:11;8.93;;;3.10;;
12591;SDS011;6361;52.120;5.108;2022-12-16T07:49:55;7.57;;;4.18;;
12591;SDS011;6361;52.120;5.108;2022-12-16T07:52:39;8.90;;;3.20;;
12591;SDS011;6361;52.120;5.108;2022-12-16T07:55:23;9.88;;;3.30;;
12591;SDS011;6361;52.120;5.108;2022-12-16T07:58:08;6.80;;;2.90;;
12591;SDS011;6361;52.120;5.108;2022-12-16T08:00:52;11.50;;;5.15;;
12591;SDS011;6361;52.120;5.108;2022-12-16T08:03:36;17.77;;;3.90;;
12591;SDS011;6361;52.120;5.108;2022-12-16T08:06:20;6.43;;;3.20;;
12591;SDS011;6361;52.120;5.108;2022-12-16T08:09:04;7.32;;;2.90;;
12591;SDS011;6361;52.120;5.108;2022-12-16T08:11:48;8.40;;;4.15;;
12591;SDS011;6361;52.120;5.108;2022-12-16T08:14:32;16.73;;;9.15;;
12591;SDS011;6361;52.120;5.108;2022-12-16T08:17:30;11.05;;;5.20;;
12591;SDS011;6361;52.120;5.108;2022-12-16T08:20:14;12.00;;;3.33;;
12591;SDS011;6361;52.120;5.108;2022-12-16T08:22:58;9.77;;;3.40;;
12591;SDS011;6361;52.120;5.108;2022-12-16T08:25:42;10.73;;;3.17;;
12591;SDS011;6361;52.120;5.108;2022-12-16T08:28:26;8.45;;;2.80;;
12591;SDS011;6361;52.120;5.108;2022-12-16T08:31:10;18.88;;;8.60;;
12591;SDS011;6361;52.120;5.108;2022-12-16T08:33:54;9.55;;;4.00;;
12591;SDS011;6361;52.120;5.108;2022-12-16T08:36:38;11.15;;;3.60;;
12591;SDS011;6361;52.120;5.108;2022-12-16T08:39:22;8.32;;;3.30;;
12591;SDS011;6361;52.120;5.108;2022-12-16T08:42:06;7.75;;;3.25;;
12591;SDS011;6361;52.120;5.108;2022-12-16T08:44:50;8.93;;;3.55;;
12591;SDS011;6361;52.120;5.108;2022-12-16T08:47:34;8.07;;;3.83;;
12591;SDS011;6361;52.120;5.108;2022-12-16T08:50:18;7.78;;;3.03;;
12591;SDS011;6361;52.120;5.108;2022-12-16T08:53:02;8.70;;;3.08;;
12591;SDS011;6361;52.120;5.108;2022-12-16T08:55:46;10.00;;;3.90;;
12591;SDS011;6361;52.120;5.108;2022-12-16T08:58:31;6.78;;;3.15;;
12591;SDS011;6361;52.120;5.108;2022-12-16T09:01:15;6.85;;;3.42;;
12591;SDS011;6361;52.120;5.108;2022-12-16T09:03:59;6.60;;;3.00;;
12591;SDS011;6361;52.120;5.108;2022-12-16T09:06:43;3.83;;;2.42;;
12591;SDS011;6361;52.120;5.108;2022-12-16T09:09:27;9.70;;;3.95;;
12591;SDS011;6361;52.120;5.108;2022-12-16T09:12:11;7.30;;;3.50;;
12591;SDS011;6361;52.120;5.108;2022-12-16T09:14:55;9.50;;;3.65;;
12591;SDS011;6361;52.120;5.108;2022-12-16T09:17:38;8.60;;;3.53;;
12591;SDS011;6361;52.120;5.108;2022-12-16T09:20:23;11.60;;;3.67;;
12591;SDS011;6361;52.120;5.108;2022-12-16T09:23:07;11.23;;;4.13;;
12591;SDS011;6361;52.120;5.108;2022-12-16T09:25:51;10.23;;;4.10;;
12591;SDS011;6361;52.120;5.108;2022-12-16T09:28:35;5.90;;;2.65;;
12591;SDS011;6361;52.120;5.108;2022-12-16T09:31:18;7.60;;;2.80;;
12591;SDS011;6361;52.120;5.108;2022-12-16T09:34:02;5.53;;;3.05;;
12591;SDS011;6361;52.120;5.108;2022-12-16T09:36:47;7.60;;;3.60;;
12591;SDS011;6361;52.120;5.108;2022-12-16T09:39:30;11.15;;;3.90;;
12591;SDS011;6361;52.120;5.108;2022-12-16T09:48:05;9.35;;;3.30;;
12591;SDS011;6361;52.120;5.108;2022-12-16T09:50:55;9.65;;;3.15;;
12591;SDS011;6361;52.120;5.108;2022-12-16T09:53:41;6.53;;;2.97;;
12591;SDS011;6361;52.120;5.108;2022-12-16T09:56:30;14.85;;;6.07;;
12591;SDS011;6361;52.120;5.108;2022-12-16T09:59:18;8.60;;;3.38;;
12591;SDS011;6361;52.120;5.108;2022-12-16T10:02:10;7.63;;;3.40;;
12591;SDS011;6361;52.120;5.108;2022-12-16T10:04:55;4.40;;;2.55;;
12591;SDS011;6361;52.120;5.108;2022-12-16T10:07:39;6.90;;;3.30;;
12591;SDS011;6361;52.120;5.108;2022-12-16T10:25:19;9.95;;;3.30;;
12591;SDS011;6361;52.120;5.108;2022-12-16T10:28:21;8.60;;;2.85;;
12591;SDS011;6361;52.120;5.108;2022-12-16T10:31:20;8.30;;;3.83;;
12591;SDS011;6361;52.120;5.108;2022-12-16T10:34:08;8.02;;;3.90;;
12591;SDS011;6361;52.120;5.108;2022-12-16T10:36:54;10.57;;;3.88;;
12591;SDS011;6361;52.120;5.108;2022-12-16T10:39:57;7.10;;;3.15;;
12591;SDS011;6361;52.120;5.108;2022-12-16T10:42:57;6.65;;;3.50;;
12591;SDS011;6361;52.120;5.108;2022-12-16T10:45:44;9.80;;;3.50;;
12591;SDS011;6361;52.120;5.108;2022-12-16T10:48:30;9.98;;;4.15;;
12591;SDS011;6361;52.120;5.108;2022-12-16T10:51:16;8.52;;;3.47;;
12591;SDS011;6361;52.120;5.108;2022-12-16T10:54:21;6.13;;;3.30;;
12591;SDS011;6361;52.120;5.108;2022-12-16T10:57:54;10.38;;;3.40;;
12591;SDS011;6361;52.120;5.108;2022-12-16T11:06:21;8.93;;;4.30;;
12591;SDS011;6361;52.120;5.108;2022-12-16T11:09:31;6.85;;;3.53;;
12591;SDS011;6361;52.120;5.108;2022-12-16T11:12:18;9.70;;;4.28;;
12591;SDS011;6361;52.120;5.108;2022-12-16T11:15:29;7.07;;;3.67;;
12591;SDS011;6361;52.120;5.108;2022-12-16T11:18:17;8.80;;;4.63;;
12591;SDS011;6361;52.120;5.108;2022-12-16T11:21:13;9.18;;;4.82;;
12591;SDS011;6361;52.120;5.108;2022-12-16T11:26:53;9.73;;;4.70;;
12591;SDS011;6361;52.120;5.108;2022-12-16T11:29:52;8.45;;;5.05;;
12591;SDS011;6361;52.120;5.108;2022-12-16T11:32:53;14.85;;;6.05;;
12591;SDS011;6361;52.120;5.108;2022-12-16T11:35:40;14.63;;;7.00;;
12591;SDS011;6361;52.120;5.108;2022-12-16T11:38:27;9.52;;;6.32;;
12591;SDS011;6361;52.120;5.108;2022-12-16T11:41:27;8.93;;;6.00;;
12591;SDS011;6361;52.120;5.108;2022-12-16T11:44:19;14.18;;;7.68;;
12591;SDS011;6361;52.120;5.108;2022-12-16T11:47:10;15.38;;;8.10;;
12591;SDS011;6361;52.120;5.108;2022-12-16T11:50:07;11.18;;;7.40;;
12591;SDS011;6361;52.120;5.108;2022-12-16T11:52:55;12.32;;;8.05;;
12591;SDS011;6361;52.120;5.108;2022-12-16T11:55:41;12.98;;;7.75;;
12591;SDS011;6361;52.120;5.108;2022-12-16T11:58:33;13.73;;;8.10;;
12591;SDS011;6361;52.120;5.108;2022-12-16T12:01:26;13.00;;;8.43;;
12591;SDS011;6361;52.120;5.108;2022-12-16T12:04:23;18.08;;;9.50;;
12591;SDS011;6361;52.120;5.108;2022-12-16T12:19:07;13.30;;;9.10;;
12591;SDS011;6361;52.120;5.108;2022-12-16T12:21:58;15.88;;;9.13;;
12591;SDS011;6361;52.120;5.108;2022-12-16T12:24:51;15.63;;;9.43;;
12591;SDS011;6361;52.120;5.108;2022-12-16T12:27:49;15.90;;;8.30;;
12591;SDS011;6361;52.120;5.108;2022-12-16T12:30:54;13.80;;;8.27;;
12591;SDS011;6361;52.120;5.108;2022-12-16T12:37:00;14.25;;;8.43;;
12591;SDS011;6361;52.120;5.108;2022-12-16T12:39:56;14.32;;;8.30;;
12591;SDS011;6361;52.120;5.108;2022-12-16T12:42:48;13.67;;;8.73;;
12591;SDS011;6361;52.120;5.108;2022-12-16T12:48:25;12.40;;;7.88;;
12591;SDS011;6361;52.120;5.108;2022-12-16T12:51:15;13.75;;;8.32;;
12591;SDS011;6361;52.120;5.108;2022-12-16T12:56:58;18.05;;;9.65;;
12591;SDS011;6361;52.120;5.108;2022-12-16T13:02:43;14.45;;;8.48;;
12591;SDS011;6361;52.120;5.108;2022-12-16T13:05:28;11.23;;;8.23;;
12591;SDS011;6361;52.120;5.108;2022-12-16T13:08:40;13.07;;;8.43;;
12591;SDS011;6361;52.120;5.108;2022-12-16T13:11:24;14.35;;;9.05;;
12591;SDS011;6361;52.120;5.108;2022-12-16T13:17:14;16.67;;;8.85;;
12591;SDS011;6361;52.120;5.108;2022-12-16T13:19:59;15.35;;;8.88;;
12591;SDS011;6361;52.120;5.108;2022-12-16T13:22:43;21.87;;;10.23;;
12591;SDS011;6361;52.120;5.108;2022-12-16T13:28:26;17.35;;;11.35;;
12591;SDS011;6361;52.120;5.108;2022-12-16T13:31:12;15.80;;;9.38;;
12591;SDS011;6361;52.120;5.108;2022-12-16T13:33:59;19.27;;;10.43;;
12591;SDS011;6361;52.120;5.108;2022-12-16T13:37:15;14.65;;;9.52;;
12591;SDS011;6361;52.120;5.108;2022-12-16T13:40:04;17.65;;;10.52;;
12591;SDS011;6361;52.120;5.108;2022-12-16T13:42:56;15.63;;;10.50;;
12591;SDS011;6361;52.120;5.108;2022-12-16T13:48:42;18.27;;;11.07;;
12591;SDS011;6361;52.120;5.108;2022-12-16T13:54:21;20.67;;;12.18;;
12591;SDS011;6361;52.120;5.108;2022-12-16T13:57:10;20.70;;;13.07;;
12591;SDS011;6361;52.120;5.108;2022-12-16T13:59:59;22.95;;;13.27;;
12591;SDS011;6361;52.120;5.108;2022-12-16T14:02:43;21.75;;;13.93;;
12591;SDS011;6361;52.120;5.108;2022-12-16T14:05:28;20.73;;;13.10;;
12591;SDS011;6361;52.120;5.108;2022-12-16T14:08:17;22.23;;;14.50;;
12591;SDS011;6361;52.120;5.108;2022-12-16T14:11:04;21.33;;;13.43;;
12591;SDS011;6361;52.120;5.108;2022-12-16T14:25:47;20.25;;;11.65;;
12591;SDS011;6361;52.120;5.108;2022-12-16T14:28:39;17.48;;;11.98;;
12591;SDS011;6361;52.120;5.108;2022-12-16T14:31:25;20.80;;;11.82;;
12591;SDS011;6361;52.120;5.108;2022-12-16T14:37:12;18.13;;;11.98;;
12591;SDS011;6361;52.120;5.108;2022-12-16T14:39:57;20.35;;;12.23;;
12591;SDS011;6361;52.120;5.108;2022-12-16T14:42:41;21.27;;;12.15;;
12591;SDS011;6361;52.120;5.108;2022-12-16T14:54:16;18.55;;;11.00;;
12591;SDS011;6361;52.120;5.108;2022-12-16T14:57:00;20.50;;;12.05;;
12591;SDS011;6361;52.120;5.108;2022-12-16T14:59:44;17.38;;;10.70;;
12591;SDS011;6361;52.120;5.108;2022-12-16T15:02:33;14.65;;;9.15;;
12591;SDS011;6361;52.120;5.108;2022-12-16T15:05:21;19.60;;;11.85;;
12591;SDS011;6361;52.120;5.108;2022-12-16T15:08:10;15.25;;;8.43;;
12591;SDS011;6361;52.120;5.108;2022-12-16T15:10:54;15.75;;;9.73;;
12591;SDS011;6361;52.120;5.108;2022-12-16T15:13:38;15.68;;;10.35;;
12591;SDS011;6361;52.120;5.108;2022-12-16T15:16:29;17.52;;;10.52;;
12591;SDS011;6361;52.120;5.108;2022-12-16T15:19:15;16.65;;;9.68;;
12591;SDS011;6361;52.120;5.108;2022-12-16T15:22:02;19.25;;;11.90;;
12591;SDS011;6361;52.120;5.108;2022-12-16T15:24:46;15.98;;;10.43;;
12591;SDS011;6361;52.120;5.108;2022-12-16T15:27:34;11.93;;;8.63;;
12591;SDS011;6361;52.120;5.108;2022-12-16T15:30:42;13.38;;;8.63;;
12591;SDS011;6361;52.120;5.108;2022-12-16T15:33:28;12.82;;;8.65;;
12591;SDS011;6361;52.120;5.108;2022-12-16T15:36:20;14.48;;;8.07;;
12591;SDS011;6361;52.120;5.108;2022-12-16T15:39:10;24.48;;;12.32;;
12591;SDS011;6361;52.120;5.108;2022-12-16T15:41:54;21.60;;;11.70;;
12591;SDS011;6361;52.120;5.108;2022-12-16T15:44:39;18.10;;;10.05;;
12591;SDS011;6361;52.120;5.108;2022-12-16T15:47:30;12.63;;;8.45;;
12591;SDS011;6361;52.120;5.108;2022-12-16T15:50:17;14.85;;;8.02;;
12591;SDS011;6361;52.120;5.108;2022-12-16T16:02:03;14.52;;;8.30;;
12591;SDS011;6361;52.120;5.108;2022-12-16T16:04:51;14.35;;;8.35;;
12591;SDS011;6361;52.120;5.108;2022-12-16T16:07:36;14.00;;;8.40;;
12591;SDS011;6361;52.120;5.108;2022-12-16T16:10:21;20.73;;;9.18;;
12591;SDS011;6361;52.120;5.108;2022-12-16T16:13:06;13.45;;;9.13;;
12591;SDS011;6361;52.120;5.108;2022-12-16T16:15:51;12.70;;;7.47;;
12591;SDS011;6361;52.120;5.108;2022-12-16T16:18:36;13.63;;;8.15;;
12591;SDS011;6361;52.120;5.108;2022-12-16T16:21:23;13.35;;;8.07;;
12591;SDS011;6361;52.120;5.108;2022-12-16T16:24:07;12.23;;;6.85;;
12591;SDS011;6361;52.120;5.108;2022-12-16T16:26:55;14.32;;;7.70;;
12591;SDS011;6361;52.120;5.108;2022-12-16T16:29:40;10.50;;;6.47;;
12591;SDS011;6361;52.120;5.108;2022-12-16T16:32:24;13.35;;;8.27;;
12591;SDS011;6361;52.120;5.108;2022-12-16T16:35:08;10.18;;;6.45;;
12591;SDS011;6361;52.120;5.108;2022-12-16T16:37:52;13.95;;;8.70;;
12591;SDS011;6361;52.120;5.108;2022-12-16T16:40:37;14.52;;;8.15;;
12591;SDS011;6361;52.120;5.108;2022-12-16T16:43:23;12.32;;;7.75;;
12591;SDS011;6361;52.120;5.108;2022-12-16T16:49:10;11.50;;;7.43;;
12591;SDS011;6361;52.120;5.108;2022-12-16T16:51:55;14.88;;;8.23;;
12591;SDS011;6361;52.120;5.108;2022-12-16T16:54:39;15.38;;;8.00;;
12591;SDS011;6361;52.120;5.108;2022-12-16T16:57:23;16.98;;;8.73;;
12591;SDS011;6361;52.120;5.108;2022-12-16T17:00:09;12.80;;;7.70;;
12591;SDS011;6361;52.120;5.108;2022-12-16T17:02:53;16.38;;;8.85;;
12591;SDS011;6361;52.120;5.108;2022-12-16T17:05:37;13.50;;;8.55;;
12591;SDS011;6361;52.120;5.108;2022-12-16T17:08:21;13.60;;;8.60;;
12591;SDS011;6361;52.120;5.108;2022-12-16T17:11:15;12.57;;;8.95;;
12591;SDS011;6361;52.120;5.108;2022-12-16T17:14:01;14.23;;;7.57;;
12591;SDS011;6361;52.120;5.108;2022-12-16T17:16:45;11.40;;;6.77;;
12591;SDS011;6361;52.120;5.108;2022-12-16T17:19:29;12.73;;;8.23;;
12591;SDS011;6361;52.120;5.108;2022-12-16T17:22:13;14.50;;;7.35;;
12591;SDS011;6361;52.120;5.108;2022-12-16T17:24:57;15.48;;;8.60;;
12591;SDS011;6361;52.120;5.108;2022-12-16T17:27:42;12.95;;;8.50;;
12591;SDS011;6361;52.120;5.108;2022-12-16T17:30:26;15.00;;;7.82;;
12591;SDS011;6361;52.120;5.108;2022-12-16T17:33:10;14.52;;;8.90;;
12591;SDS011;6361;52.120;5.108;2022-12-16T17:35:54;17.80;;;9.70;;
12591;SDS011;6361;52.120;5.108;2022-12-16T17:38:40;20.85;;;10.00;;
12591;SDS011;6361;52.120;5.108;2022-12-16T17:41:28;18.15;;;9.40;;
12591;SDS011;6361;52.120;5.108;2022-12-16T17:44:13;18.83;;;10.07;;
12591;SDS011;6361;52.120;5.108;2022-12-16T17:46:57;18.17;;;9.52;;
12591;SDS011;6361;52.120;5.108;2022-12-16T17:49:41;18.95;;;9.93;;
12591;SDS011;6361;52.120;5.108;2022-12-16T17:52:25;18.23;;;11.25;;
12591;SDS011;6361;52.120;5.108;2022-12-16T17:55:10;17.23;;;10.93;;
12591;SDS011;6361;52.120;5.108;2022-12-16T17:57:54;18.07;;;11.50;;
12591;SDS011;6361;52.120;5.108;2022-12-16T18:00:38;21.02;;;11.55;;
12591;SDS011;6361;52.120;5.108;2022-12-16T18:03:22;16.83;;;10.93;;
12591;SDS011;6361;52.120;5.108;2022-12-16T18:06:06;16.35;;;10.02;;
12591;SDS011;6361;52.120;5.108;2022-12-16T18:08:50;19.57;;;11.63;;
12591;SDS011;6361;52.120;5.108;2022-12-16T18:11:34;23.10;;;12.45;;
12591;SDS011;6361;52.120;5.108;2022-12-16T18:14:18;19.40;;;11.20;;
12591;SDS011;6361;52.120;5.108;2022-12-16T18:17:02;17.08;;;10.57;;
12591;SDS011;6361;52.120;5.108;2022-12-16T18:19:47;16.15;;;8.27;;
12591;SDS011;6361;52.120;5.108;2022-12-16T18:22:31;13.60;;;8.55;;
12591;SDS011;6361;52.120;5.108;2022-12-16T18:25:15;20.02;;;12.20;;
12591;SDS011;6361;52.120;5.108;2022-12-16T18:27:59;19.38;;;10.63;;
12591;SDS011;6361;52.120;5.108;2022-12-16T18:30:43;18.63;;;11.15;;
12591;SDS011;6361;52.120;5.108;2022-12-16T18:33:27;14.10;;;9.18;;
12591;SDS011;6361;52.120;5.108;2022-12-16T18:36:11;17.05;;;10.55;;
12591;SDS011;6361;52.120;5.108;2022-12-16T18:38:55;17.27;;;10.38;;
12591;SDS011;6361;52.120;5.108;2022-12-16T18:41:40;17.40;;;10.10;;
12591;SDS011;6361;52.120;5.108;2022-12-16T18:44:26;14.25;;;8.50;;